createdAt,value
2018-04-02T00:00:47.270Z,66.13
2018-04-02T00:03:19.816Z,64.20
2018-04-02T00:05:52.407Z,61.03
2018-04-02T00:08:24.996Z,60.27
2018-04-02T00:10:58.388Z,69.00
2018-04-02T00:13:31.046Z,71.97
2018-04-02T00:16:03.528Z,62.47
2018-04-02T00:18:36.041Z,59.00
2018-04-02T00:21:08.579Z,67.67
2018-04-02T00:23:41.109Z,69.03
2018-04-02T00:26:15.170Z,56.13
2018-04-02T00:28:47.566Z,54.00
2018-04-02T00:31:20.429Z,64.27
2018-04-02T00:33:52.904Z,64.00
2018-04-02T00:36:25.609Z,68.00
2018-04-02T00:38:58.488Z,57.13
2018-04-02T00:41:38.759Z,64.23
2018-04-02T00:44:11.097Z,59.50
2018-04-02T00:46:43.501Z,59.13
2018-04-02T00:49:16.030Z,57.00
2018-04-02T00:51:48.630Z,65.90
2018-04-02T00:54:21.479Z,56.10
2018-04-02T00:56:54.005Z,62.77
2018-04-02T00:59:27.109Z,57.20
2018-04-02T01:01:59.928Z,67.50
2018-04-02T01:04:33.174Z,56.87
2018-04-02T01:07:06.334Z,53.97
2018-04-02T01:09:38.975Z,54.00
2018-04-02T01:12:11.520Z,50.67
2018-04-02T01:14:44.176Z,57.00
2018-04-02T01:17:17.567Z,52.23
2018-04-02T01:19:50.116Z,52.10
2018-04-02T01:22:22.532Z,64.97
2018-04-02T01:24:55.691Z,51.30
2018-04-02T01:27:29.034Z,53.80
2018-04-02T01:30:02.346Z,51.77
2018-04-02T01:32:34.846Z,59.77
2018-04-02T01:35:07.420Z,51.63
2018-04-02T01:37:40.339Z,49.17
2018-04-02T01:40:12.847Z,60.33
2018-04-02T01:42:45.672Z,53.00
2018-04-02T01:45:18.481Z,54.40
2018-04-02T01:47:51.111Z,52.37
2018-04-02T01:50:23.746Z,53.00
2018-04-02T01:52:56.315Z,53.13
2018-04-02T01:55:29.110Z,56.53
2018-04-02T01:58:01.783Z,49.97
2018-04-02T02:00:34.192Z,55.77
2018-04-02T02:03:07.470Z,49.03
2018-04-02T02:05:39.942Z,52.77
2018-04-02T02:08:13.041Z,47.53
2018-04-02T02:10:45.600Z,52.97
2018-04-02T02:13:17.956Z,49.57
2018-04-02T02:15:51.070Z,53.57
2018-04-02T02:18:24.309Z,52.57
2018-04-02T02:20:56.896Z,51.73
2018-04-02T02:23:29.559Z,51.87
2018-04-02T02:26:02.213Z,53.23
2018-04-02T02:28:34.793Z,53.73
2018-04-02T02:31:07.216Z,50.17
2018-04-02T02:33:39.804Z,62.33
2018-04-02T02:36:12.456Z,59.13
2018-04-02T02:38:45.120Z,61.37
2018-04-02T02:41:17.534Z,53.10
2018-04-02T02:43:50.934Z,54.80
2018-04-02T02:46:24.324Z,53.87
2018-04-02T02:48:56.766Z,52.00
2018-04-02T02:51:29.239Z,54.47
2018-04-02T02:54:01.724Z,65.93
2018-04-02T02:56:34.239Z,52.77
2018-04-02T02:59:06.841Z,61.27
2018-04-02T03:01:39.442Z,50.83
2018-04-02T03:04:12.404Z,52.97
2018-04-02T03:06:44.810Z,58.83
2018-04-02T03:09:17.321Z,50.87
2018-04-02T03:11:49.800Z,55.53
2018-04-02T03:14:22.240Z,60.77
2018-04-02T03:16:54.734Z,70.70
2018-04-02T03:19:27.328Z,62.07
2018-04-02T03:21:59.931Z,63.50
2018-04-02T03:24:33.173Z,63.87
2018-04-02T03:27:05.614Z,73.77
2018-04-02T03:29:38.034Z,54.87
2018-04-02T03:32:10.453Z,62.30
2018-04-02T03:34:43.868Z,59.90
2018-04-02T03:37:16.272Z,58.37
2018-04-02T03:39:48.980Z,57.07
2018-04-02T03:42:22.251Z,59.67
2018-04-02T03:44:54.795Z,58.70
2018-04-02T03:47:27.894Z,55.90
2018-04-02T03:50:00.632Z,58.03
2018-04-02T03:52:33.191Z,56.83
2018-04-02T03:55:06.401Z,58.77
2018-04-02T03:57:38.895Z,53.47
2018-04-02T04:00:11.526Z,54.70
2018-04-02T04:02:44.044Z,56.80
2018-04-02T04:05:16.526Z,58.57
2018-04-02T04:07:49.011Z,60.07
2018-04-02T04:10:21.506Z,59.43
2018-04-02T04:12:54.664Z,60.23
2018-04-02T04:15:27.176Z,56.07
2018-04-02T04:18:01.044Z,60.10
2018-04-02T04:20:33.489Z,57.90
2018-04-02T04:23:06.085Z,53.80
2018-04-02T04:25:39.325Z,59.57
2018-04-02T04:28:12.717Z,57.33
2018-04-02T04:30:46.436Z,53.80
2018-04-02T04:33:18.956Z,71.63
2018-04-02T04:35:52.123Z,60.03
2018-04-02T04:38:24.549Z,69.43
2018-04-02T04:40:57.130Z,57.63
2018-04-02T04:43:29.830Z,56.87
2018-04-02T04:46:02.535Z,71.07
2018-04-02T04:48:35.800Z,57.87
2018-04-02T04:51:08.283Z,62.60
2018-04-02T04:53:41.061Z,58.93
2018-04-02T04:56:13.827Z,79.27
2018-04-02T04:58:46.434Z,65.97
2018-04-02T05:01:18.799Z,60.23
2018-04-02T05:03:51.360Z,62.97
2018-04-02T05:06:23.729Z,59.73
2018-04-02T05:08:56.089Z,70.57
2018-04-02T05:11:28.604Z,65.30
2018-04-02T05:14:01.206Z,67.23
2018-04-02T05:16:33.628Z,61.30
2018-04-02T05:19:06.822Z,59.93
2018-04-02T05:21:39.513Z,67.23
2018-04-02T05:24:12.424Z,65.90
2018-04-02T05:26:44.876Z,70.17
2018-04-02T05:29:17.630Z,78.93
2018-04-02T05:31:50.060Z,64.23
2018-04-02T05:34:23.409Z,82.53
2018-04-02T05:36:55.972Z,71.43
2018-04-02T05:39:28.410Z,82.83
2018-04-02T05:42:00.855Z,68.27
2018-04-02T05:44:33.395Z,77.80
2018-04-02T05:47:06.194Z,71.90
2018-04-02T05:49:38.969Z,60.47
2018-04-02T05:52:11.384Z,76.90
2018-04-02T05:54:44.006Z,82.03
2018-04-02T05:57:16.564Z,79.17
2018-04-02T05:59:49.125Z,65.20
2018-04-02T06:02:21.778Z,75.77
2018-04-02T06:04:54.121Z,70.33
2018-04-02T06:07:27.224Z,76.97
2018-04-02T06:09:59.704Z,78.83
2018-04-02T06:12:32.904Z,67.57
2018-04-02T06:15:05.409Z,72.57
2018-04-02T06:17:37.916Z,72.00
2018-04-02T06:20:10.529Z,80.40
2018-04-02T06:22:43.641Z,68.97
2018-04-02T06:25:16.039Z,62.43
2018-04-02T06:27:48.499Z,64.53
2018-04-02T06:30:20.999Z,78.27
2018-04-02T06:32:53.480Z,70.20
2018-04-02T06:35:25.790Z,70.93
2018-04-02T06:37:58.387Z,60.27
2018-04-02T06:40:31.374Z,60.17
2018-04-02T06:43:04.722Z,62.47
2018-04-02T06:45:37.266Z,62.77
2018-04-02T06:48:10.674Z,54.33
2018-04-02T06:50:43.131Z,53.37
2018-04-02T06:53:16.425Z,52.37
2018-04-02T06:55:49.571Z,52.57
2018-04-02T06:58:21.896Z,52.00
2018-04-02T07:00:55.566Z,50.13
2018-04-02T07:03:28.113Z,47.90
2018-04-02T07:06:01.240Z,46.67
2018-04-02T07:08:33.806Z,47.13
2018-04-02T07:11:06.254Z,46.73
2018-04-02T07:13:38.904Z,43.03
2018-04-02T07:16:13.112Z,41.63
2018-04-02T07:18:45.660Z,46.83
2018-04-02T07:21:18.075Z,45.67
2018-04-02T07:23:50.592Z,43.63
2018-04-02T07:26:23.153Z,42.57
2018-04-02T07:28:55.521Z,48.60
2018-04-02T07:31:28.021Z,47.87
2018-04-02T07:34:00.534Z,48.60
2018-04-02T07:36:32.951Z,51.10
2018-04-02T07:39:05.607Z,40.03
2018-04-02T07:41:38.877Z,45.77
2018-04-02T07:44:11.406Z,42.07
2018-04-02T07:46:44.947Z,46.80
2018-04-02T07:49:18.965Z,44.80
2018-04-02T07:51:52.225Z,44.07
2018-04-02T07:54:24.666Z,48.73
2018-04-02T07:56:57.081Z,44.03
2018-04-02T07:59:30.479Z,44.93
2018-04-02T08:02:03.036Z,48.03
2018-04-02T08:04:35.715Z,44.67
2018-04-02T08:07:08.160Z,41.93
2018-04-02T08:09:40.577Z,46.73
2018-04-02T08:12:13.338Z,41.03
2018-04-02T08:14:45.840Z,45.13
2018-04-02T08:17:19.011Z,40.00
2018-04-02T08:19:51.661Z,43.03
2018-04-02T08:22:24.242Z,44.43
2018-04-02T08:24:57.045Z,40.77
2018-04-02T08:27:29.587Z,39.77
2018-04-02T08:30:03.153Z,40.73
2018-04-02T08:32:35.776Z,44.40
2018-04-02T08:35:08.415Z,37.50
2018-04-02T08:37:41.017Z,41.53
2018-04-02T08:40:13.708Z,41.60
2018-04-02T08:42:46.285Z,39.30
2018-04-02T08:45:18.835Z,34.47
2018-04-02T08:47:51.411Z,40.13
2018-04-02T08:50:25.360Z,39.60
2018-04-02T08:52:58.815Z,38.40
2018-04-02T08:55:31.316Z,36.80
2018-04-02T08:58:04.525Z,38.50
2018-04-02T09:00:37.122Z,37.23
2018-04-02T09:03:09.861Z,43.40
2018-04-02T09:05:42.356Z,39.80
2018-04-02T09:08:16.261Z,36.23
2018-04-02T09:10:48.694Z,35.07
2018-04-02T09:13:21.342Z,34.53
2018-04-02T09:15:54.625Z,30.87
2018-04-02T09:18:27.161Z,37.00
2018-04-02T09:20:59.780Z,33.07
2018-04-02T09:23:32.966Z,30.10
2018-04-02T09:26:05.320Z,31.47
2018-04-02T09:28:37.687Z,31.23
2018-04-02T09:31:10.376Z,30.30
2018-04-02T09:33:43.003Z,30.97
2018-04-02T09:36:15.952Z,32.80
2018-04-02T09:38:48.568Z,29.07
2018-04-02T09:41:21.175Z,29.20
2018-04-02T09:43:54.332Z,25.37
2018-04-02T09:46:27.434Z,23.97
2018-04-02T09:49:00.086Z,25.87
2018-04-02T09:51:32.610Z,27.50
2018-04-02T09:54:05.051Z,26.77
2018-04-02T09:56:38.341Z,25.37
2018-04-02T09:59:11.058Z,25.80
2018-04-02T10:01:43.755Z,22.70
2018-04-02T10:04:17.091Z,22.77
2018-04-02T10:06:50.507Z,22.67
2018-04-02T10:09:23.157Z,23.60
2018-04-02T10:11:55.804Z,23.40
2018-04-02T10:14:29.680Z,22.73
2018-04-02T10:17:02.104Z,21.27
2018-04-02T10:19:34.661Z,20.60
2018-04-02T10:22:07.956Z,22.40
2018-04-02T10:24:40.448Z,23.23
2018-04-02T10:27:13.612Z,22.30
2018-04-02T10:29:47.195Z,21.40
2018-04-02T10:32:19.698Z,21.43
2018-04-02T10:34:52.579Z,20.50
2018-04-02T10:37:25.032Z,21.83
2018-04-02T10:39:57.451Z,21.73
2018-04-02T10:42:24.084Z,22.33
2018-04-02T10:44:51.141Z,19.53
2018-04-02T10:47:17.597Z,20.47
2018-04-02T10:49:43.961Z,19.70
2018-04-02T10:52:11.057Z,21.27
2018-04-02T10:54:37.630Z,18.77
2018-04-02T10:57:04.642Z,20.97
2018-04-02T10:59:31.205Z,16.03
2018-04-02T11:01:57.897Z,16.67
2018-04-02T11:04:24.278Z,18.80
2018-04-02T11:06:50.662Z,16.93
2018-04-02T11:09:17.274Z,18.43
2018-04-02T11:11:43.973Z,18.40
2018-04-02T11:14:10.817Z,18.27
2018-04-02T11:16:38.456Z,16.83
2018-04-02T11:19:04.982Z,17.20
2018-04-02T11:21:31.722Z,17.10
2018-04-02T11:23:58.767Z,15.70
2018-04-02T11:26:25.204Z,17.57
2018-04-02T11:28:51.964Z,17.13
2018-04-02T11:31:18.436Z,16.00
2018-04-02T11:33:45.329Z,17.57
2018-04-02T11:36:13.010Z,16.20
2018-04-02T11:38:40.049Z,16.27
2018-04-02T11:41:06.766Z,16.20
2018-04-02T11:43:33.383Z,15.93
2018-04-02T11:45:59.837Z,15.10
2018-04-02T11:48:26.411Z,16.13
2018-04-02T11:50:53.006Z,16.53
2018-04-02T11:53:19.448Z,15.50
2018-04-02T11:55:46.022Z,13.67
2018-04-02T11:58:13.560Z,15.33
2018-04-02T12:00:40.936Z,15.37
2018-04-02T12:03:08.077Z,15.83
2018-04-02T12:05:35.723Z,15.10
2018-04-02T12:08:05.498Z,15.50
2018-04-02T12:10:32.096Z,14.30
2018-04-02T12:12:58.793Z,14.43
2018-04-02T12:15:25.374Z,14.03
2018-04-02T12:17:52.267Z,15.40
2018-04-02T12:20:18.681Z,13.40
2018-04-02T12:22:45.573Z,14.30
2018-04-02T12:25:13.103Z,13.73
2018-04-02T12:27:39.794Z,12.90
2018-04-02T12:30:06.951Z,12.77
2018-04-02T12:32:35.065Z,13.27
2018-04-02T12:35:02.162Z,12.80
2018-04-02T12:37:29.162Z,13.30
2018-04-02T12:39:56.237Z,11.60
2018-04-02T12:42:23.356Z,11.77
2018-04-02T12:44:50.202Z,13.90
2018-04-02T12:47:17.320Z,12.03
2018-04-02T12:49:44.239Z,13.77
2018-04-02T12:52:10.828Z,12.53
2018-04-02T12:54:38.804Z,13.43
2018-04-02T12:57:05.415Z,15.97
2018-04-02T12:59:31.906Z,12.03
2018-04-02T13:01:58.372Z,12.30
2018-04-02T13:04:25.481Z,12.37
2018-04-02T13:06:52.233Z,12.27
2018-04-02T13:09:19.472Z,11.07
2018-04-02T13:11:46.212Z,10.80
2018-04-02T13:14:12.797Z,11.20
2018-04-02T13:16:39.146Z,10.87
2018-04-02T13:19:05.899Z,11.90
2018-04-02T13:21:32.532Z,10.97
2018-04-02T13:23:59.273Z,11.17
2018-04-02T13:26:25.958Z,11.27
2018-04-02T13:28:52.592Z,11.77
2018-04-02T13:31:19.815Z,11.30
2018-04-02T13:33:47.971Z,11.60
2018-04-02T13:36:14.781Z,10.83
2018-04-02T13:38:42.378Z,10.63
2018-04-02T13:41:10.535Z,12.10
2018-04-02T13:43:37.095Z,11.50
2018-04-02T13:46:05.567Z,11.83
2018-04-02T13:48:32.983Z,12.50
2018-04-02T13:51:00.321Z,11.30
2018-04-02T13:53:27.126Z,12.20
2018-04-02T13:55:54.149Z,15.33
2018-04-02T13:58:21.649Z,11.20
2018-04-02T14:00:49.206Z,10.83
2018-04-02T14:03:16.499Z,15.70
2018-04-02T14:05:44.609Z,10.87
2018-04-02T14:08:11.828Z,11.10
2018-04-02T14:10:38.871Z,11.00
2018-04-02T14:13:06.251Z,9.87
2018-04-02T14:15:32.897Z,10.13
2018-04-02T14:17:59.662Z,10.30
2018-04-02T14:20:27.022Z,8.53
2018-04-02T14:22:54.552Z,10.13
2018-04-02T14:25:20.971Z,10.67
2018-04-02T14:27:47.627Z,10.90
2018-04-02T14:30:15.742Z,10.53
2018-04-02T14:32:43.258Z,11.63
2018-04-02T14:35:09.762Z,11.90
2018-04-02T14:37:36.816Z,11.83
2018-04-02T14:40:03.403Z,11.57
2018-04-02T14:42:31.238Z,10.87
2018-04-02T14:44:58.067Z,9.80
2018-04-02T14:47:24.737Z,9.63
2018-04-02T14:49:51.528Z,9.47
2018-04-02T14:52:17.913Z,10.67
2018-04-02T14:54:44.466Z,12.03
2018-04-02T14:57:11.707Z,11.50
2018-04-02T14:59:45.166Z,12.43
2018-04-02T15:02:17.947Z,9.77
2018-04-02T15:04:51.049Z,10.67
2018-04-02T15:07:23.935Z,11.80
2018-04-02T15:09:57.948Z,11.17
2018-04-02T15:12:30.451Z,11.63
2018-04-02T15:15:03.413Z,10.70
2018-04-02T15:17:36.293Z,10.83
2018-04-02T15:20:08.993Z,10.93
2018-04-02T15:22:42.573Z,10.07
2018-04-02T15:25:15.568Z,11.63
2018-04-02T15:27:48.357Z,10.63
2018-04-02T15:30:21.432Z,9.63
2018-04-02T15:32:54.210Z,9.63
2018-04-02T15:35:27.913Z,10.40
2018-04-02T15:38:00.621Z,10.80
2018-04-02T15:40:33.272Z,9.50
2018-04-02T15:43:06.055Z,10.30
2018-04-02T15:45:38.701Z,10.33
2018-04-02T15:48:12.454Z,9.17
2018-04-02T15:50:45.143Z,10.57
2018-04-02T15:53:18.924Z,10.07
2018-04-02T15:55:52.216Z,10.07
2018-04-02T15:58:25.163Z,9.57
2018-04-02T16:00:58.216Z,10.87
2018-04-02T16:03:31.897Z,9.60
2018-04-02T16:06:05.451Z,9.60
2018-04-02T16:08:39.027Z,9.63
2018-04-02T16:11:11.998Z,9.43
2018-04-02T16:13:44.966Z,9.17
2018-04-02T16:16:18.208Z,9.73
2018-04-02T16:18:51.632Z,9.33
2018-04-02T16:21:24.399Z,7.53
2018-04-02T16:23:57.223Z,10.57
2018-04-02T16:26:30.039Z,9.70
2018-04-02T16:29:03.581Z,10.37
2018-04-02T16:31:37.614Z,9.90
2018-04-02T16:34:10.149Z,9.23
2018-04-02T16:36:42.870Z,8.57
2018-04-02T16:39:15.504Z,10.50
2018-04-02T16:41:49.457Z,9.73
2018-04-02T16:44:22.989Z,8.67
2018-04-02T16:46:56.153Z,8.57
2018-04-02T16:49:28.932Z,8.67
2018-04-02T16:52:01.838Z,8.50
2018-04-02T16:54:36.183Z,9.03
2018-04-02T16:57:09.324Z,9.27
2018-04-02T16:59:43.232Z,10.03
2018-04-02T17:02:15.775Z,10.10
2018-04-02T17:04:49.149Z,9.87
2018-04-02T17:07:22.092Z,9.70
2018-04-02T17:09:55.793Z,9.03
2018-04-02T17:12:28.779Z,8.47
2018-04-02T17:15:01.868Z,8.97
2018-04-02T17:17:34.658Z,9.10
2018-04-02T17:20:07.466Z,9.87
2018-04-02T17:22:40.346Z,9.67
2018-04-02T17:25:13.749Z,8.43
2018-04-02T17:27:46.464Z,7.33
2018-04-02T17:30:19.307Z,9.77
2018-04-02T17:32:52.069Z,9.37
2018-04-02T17:35:25.149Z,8.43
2018-04-02T17:37:58.302Z,8.80
2018-04-02T17:40:32.108Z,9.03
2018-04-02T17:43:05.016Z,9.03
2018-04-02T17:45:37.610Z,7.83
2018-04-02T17:48:10.485Z,9.37
2018-04-02T17:50:43.862Z,8.93
2018-04-02T17:53:16.937Z,8.93
2018-04-02T17:55:50.276Z,9.23
2018-04-02T17:58:23.088Z,9.43
2018-04-02T18:00:56.137Z,9.10
2018-04-02T18:03:29.129Z,8.73
2018-04-02T18:06:01.814Z,8.53
2018-04-02T18:08:35.508Z,7.87
2018-04-02T18:11:08.704Z,7.50
2018-04-02T18:13:41.562Z,7.83
2018-04-02T18:16:14.655Z,8.00
2018-04-02T18:18:47.485Z,8.13
2018-04-02T18:21:21.027Z,7.77
2018-04-02T18:23:54.147Z,6.57
2018-04-02T18:26:28.062Z,7.30
2018-04-02T18:29:01.043Z,7.00
2018-04-02T18:31:33.921Z,7.17
2018-04-02T18:34:07.188Z,6.47
2018-04-02T18:36:40.144Z,5.93
2018-04-02T18:39:13.198Z,6.10
2018-04-02T18:41:46.389Z,6.40
2018-04-02T18:44:20.231Z,6.03
2018-04-02T18:46:47.901Z,6.43
2018-04-02T18:49:14.364Z,6.50
2018-04-02T18:51:41.563Z,6.70
2018-04-02T18:54:08.007Z,6.30
2018-04-02T18:56:35.045Z,6.50
2018-04-02T18:59:01.594Z,5.83
2018-04-02T19:01:28.008Z,5.80
2018-04-02T19:03:54.561Z,6.33
2018-04-02T19:06:20.994Z,5.70
2018-04-02T19:08:47.320Z,5.37
2018-04-02T19:11:13.663Z,5.70
2018-04-02T19:13:40.101Z,5.60
2018-04-02T19:16:06.618Z,5.90
2018-04-02T19:18:33.256Z,5.27
2018-04-02T19:20:59.570Z,5.77
2018-04-02T19:23:26.593Z,5.37
2018-04-02T19:25:53.678Z,4.90
2018-04-02T19:28:20.110Z,5.10
2018-04-02T19:30:47.502Z,4.67
2018-04-02T19:33:14.713Z,5.37
2018-04-02T19:35:41.116Z,5.37
2018-04-02T19:38:07.574Z,5.10
2018-04-02T19:40:33.923Z,4.93
2018-04-02T19:43:00.318Z,4.73
2018-04-02T19:45:26.735Z,5.00
2018-04-02T19:47:53.159Z,5.03
2018-04-02T19:50:20.810Z,4.07
2018-04-02T19:52:47.935Z,5.10
2018-04-02T19:55:16.484Z,5.33
2018-04-02T19:57:42.848Z,4.40
2018-04-02T20:00:09.277Z,4.63
2018-04-02T20:02:36.706Z,4.20
2018-04-02T20:05:03.343Z,4.50
2018-04-02T20:07:29.914Z,4.27
2018-04-02T20:09:56.397Z,4.23
2018-04-02T20:12:22.766Z,4.20
2018-04-02T20:14:49.146Z,4.37
2018-04-02T20:17:15.585Z,4.27
2018-04-02T20:19:48.990Z,4.37
2018-04-02T20:22:22.270Z,3.83
2018-04-02T20:24:54.677Z,3.93
2018-04-02T20:27:27.412Z,3.87
2018-04-02T20:29:59.983Z,4.80
2018-04-02T20:32:32.638Z,4.47
2018-04-02T20:35:05.166Z,4.10
2018-04-02T20:37:37.677Z,4.77
2018-04-02T20:40:10.339Z,4.43
2018-04-02T20:42:42.825Z,4.40
2018-04-02T20:45:15.616Z,4.20
2018-04-02T20:47:48.140Z,4.40
2018-04-02T20:50:21.386Z,4.57
2018-04-02T20:52:54.004Z,4.83
2018-04-02T20:55:26.843Z,4.50
2018-04-02T20:57:59.308Z,5.40
2018-04-02T21:00:32.098Z,6.80
2018-04-02T21:03:04.766Z,6.90
2018-04-02T21:05:39.122Z,6.87
2018-04-02T21:08:11.874Z,5.10
2018-04-02T21:10:44.457Z,6.10
2018-04-02T21:13:17.129Z,5.90
2018-04-02T21:15:50.500Z,6.90
2018-04-02T21:18:23.309Z,6.60
2018-04-02T21:20:55.574Z,6.23
2018-04-02T21:23:28.154Z,6.57
2018-04-02T21:26:01.514Z,5.30
2018-04-02T21:28:33.900Z,6.30
2018-04-02T21:31:06.640Z,5.87
2018-04-02T21:33:39.930Z,6.17
2018-04-02T21:36:14.140Z,6.87
2018-04-02T21:38:46.681Z,5.97
2018-04-02T21:41:19.356Z,6.90
2018-04-02T21:43:51.705Z,6.60
2018-04-02T21:46:24.085Z,6.87
2018-04-02T21:48:56.609Z,6.20
2018-04-02T21:51:29.043Z,7.10
2018-04-02T21:54:01.657Z,6.27
2018-04-02T21:56:35.233Z,6.93
2018-04-02T21:59:07.635Z,7.03
2018-04-02T22:01:40.283Z,5.37
2018-04-02T22:04:12.679Z,6.03
2018-04-02T22:07:11.270Z,5.30
2018-04-02T22:09:43.874Z,5.70
2018-04-02T22:12:16.494Z,5.43
2018-04-02T22:14:49.124Z,8.97
2018-04-02T22:17:21.729Z,6.27
2018-04-02T22:19:54.896Z,5.70
2018-04-02T22:22:27.268Z,4.57
2018-04-02T22:25:00.425Z,4.83
2018-04-02T22:27:33.772Z,4.70
2018-04-02T22:30:06.370Z,5.93
2018-04-02T22:32:39.973Z,5.77
2018-04-02T22:35:12.572Z,4.70
2018-04-02T22:37:45.040Z,5.33
2018-04-02T22:40:17.598Z,6.40
2018-04-02T22:42:51.693Z,4.97
2018-04-02T22:45:24.901Z,4.00
2018-04-02T22:47:57.345Z,5.50
2018-04-02T22:50:30.009Z,4.60
2018-04-02T22:53:03.140Z,4.23
2018-04-02T22:55:35.724Z,5.40
2018-04-02T22:58:09.679Z,4.87
2018-04-02T23:00:42.208Z,5.60
2018-04-02T23:03:15.247Z,5.13
2018-04-02T23:05:47.679Z,4.47
2018-04-02T23:08:20.383Z,4.63
2018-04-02T23:10:53.098Z,4.13
2018-04-02T23:13:26.313Z,4.30
2018-04-02T23:15:58.834Z,4.03
2018-04-02T23:18:31.419Z,3.60
2018-04-02T23:21:03.959Z,4.20
2018-04-02T23:23:36.413Z,4.37
2018-04-02T23:26:08.930Z,3.40
2018-04-02T23:28:41.593Z,3.63
2018-04-02T23:31:14.293Z,4.20
2018-04-02T23:33:46.830Z,2.90
2018-04-02T23:36:19.441Z,3.10
2018-04-02T23:38:51.884Z,2.30
2018-04-02T23:41:24.377Z,2.53
2018-04-02T23:43:58.000Z,2.63
2018-04-02T23:46:30.583Z,2.80
2018-04-02T23:49:04.165Z,2.67
2018-04-02T23:51:37.445Z,2.17
2018-04-02T23:54:09.920Z,2.93
2018-04-02T23:56:42.454Z,3.13
2018-04-02T23:59:15.780Z,2.60
